x

Delaware Bay 26 Nm Southeast Of Cape May, Nj (44009) Wave Buoy

6:50pm - Wed 2nd Sep 2015 All times are EDT. -4 hours from GMT.

  • Sig Wave height 1.3ft
  • Swell Direction
  • Peak Period 14s
  • Average Period 7s
  • Wind
    4mph
  • Sea Temp 80°f
  • Air Temp 80°f
  • Sea Pressure 1013.4mb
  • Delaware Bay 26 Nm Southeast Of Cape May, Nj
  • Delaware Bay 26 Nm Southeast Of Cape May, Nj

More Historic Weather Station data

Upgrade to MSW Pro to gain access to the past 30 days of data for over 8000 Wavebouys and Weather Stations around the globe.

Join Pro

Comparision Forecast

View Surf forecast
   
Wed 09/02 6:50pm 1.3ft 14s 7s 4
mph
1013.4mb 80f 80f
5:50pm 1.3ft 13s 7s 4
mph
1013.7mb 81f 79f
4:50pm 1.3ft 14s 7s 4
mph
1014.2mb 81f 79f
3:50pm 1.3ft 14s 6s 2
mph
1014.7mb 82f 79f
2:50pm 1.3ft 14s 6s  -  mph 1015.4mb 82f 80f
1:50pm 1.3ft 10s 6s  -  2 mph 1015.8mb 80f 77f
12:50pm 1.3ft 13s 6s 4
mph
1016.2mb 80f 77f
11:50am 1.6ft 10s 6s 4 7 mph 1016.6mb 79f 78f
10:50am 1.3ft 14s 6s 7
mph
1016.6mb 79f 78f
9:50am 1.3ft 14s 6s 4
mph
1016.8mb 78f 78f
8:50am 1.6ft 14s 6s 7
mph
1017mb 78f 78f
7:50am 1.6ft 7s 6s 7
mph
1017.1mb 78f 78f
6:50am 1.6ft 7s 6s 4 7 mph 1017mb 78f 78f
5:50am 1.6ft 7s 6s 7
mph
1016.8mb 78f 78f
4:50am 1.6ft 8s 6s 4
mph
1016.7mb 79f 78f
3:50am 1.6ft 9s 6s 2
mph
1016.6mb 78f 78f
2:50am 1.6ft 8s 6s  -  2 mph 1016.8mb 79f 78f
1:50am 1.6ft 9s 6s 2 4 mph 1017.3mb 79f 78f
12:50am 1.6ft 8s 6s 4
mph
1017.6mb 79f 78f
Tue 09/01 11:50pm 1.6ft 7s 5s 4 7 mph 1017.5mb 79f 78f
10:50pm 1.6ft 10s 5s 7 9 mph 1017.4mb 79f 79f
9:50pm 2ft 8s 5s 11
mph
1017.4mb 79f 79f
8:50pm 1.6ft 9s 4s 11 13 mph 1017mb 79f 79f
7:50pm 1.6ft 8s 4s 11 13 mph 1016.5mb 80f 78f
6:50pm 1.6ft 9s 6s 13 16 mph 1016.5mb 80f 79f
5:50pm 1.6ft 9s 6s 7 9 mph 1016.6mb 81f 79f
4:50pm 1.3ft 9s 6s 7 9 mph 1016.8mb 81f 79f
3:50pm 1.3ft 8s 7s 4
mph
1016.8mb 81f 79f
2:50pm 1.3ft 8s 7s  -  2 mph 1017.3mb 81f 79f
1:50pm 1.6ft 8s 7s 4 7 mph 1017.8mb 80f 78f
12:50pm 1.6ft 8s 6s 4 7 mph 1018.1mb 80f 77f
11:50am 1.6ft 8s 6s 7
mph
1018.4mb 79f 76f
10:50am 1.6ft 8s 6s 7 9 mph 1018.3mb 78f 76f
9:50am 1.6ft 7s 5s 7
mph
1017.8mb 78f 75f
8:50am 2ft 8s 6s 9
mph
1017.6mb 78f 75f
7:50am 2ft 8s 5s 7
mph
1017.5mb 78f 75f
6:50am 2ft 8s 5s 9 11 mph 1017.4mb 78f 74f
5:50am 2ft 9s 5s 11 13 mph 1017.1mb 78f 75f
4:50am 2ft 9s 5s 11 13 mph 1017.1mb 78f 75f
3:50am 2.5ft 9s 5s 11 16 mph 1017.4mb 78f 76f
2:50am 2.5ft 9s 4s 13 16 mph 1017.5mb 78f 76f
1:50am 2.5ft 9s 4s 16 18 mph 1017.8mb 78f 76f
12:50am 2.5ft 9s 4s 18 20 mph 1017.8mb 78f 77f
Mon 08/31 11:50pm 2.5ft 9s 4s 18 22 mph 1017.7mb 78f 77f
10:50pm 3ft 9s 4s 16 20 mph 1017.9mb 78f 78f
9:50pm  -   -   -  18 20 mph 1017.8mb 78f 78f
8:50pm 3ft 4s 4s 18 20 mph 1017.6mb 78f 78f
7:50pm 2.5ft 4s 4s 18 22 mph 1017.3mb 78f 78f
6:50pm 2.5ft 9s 4s 20 22 mph 1017.5mb 77f 79f
5:50pm 2.5ft 9s 4s 16 18 mph 1017.5mb 77f 79f
4:50pm 2.5ft 9s 5s 13 16 mph 1017.7mb 77f 80f
3:50pm 2ft 10s 4s 11 13 mph 1017.8mb 78f 80f
2:50pm 2ft 9s 5s 13
mph
1017.9mb 78f 79f
1:50pm 2ft 10s 5s 11 13 mph 1018.5mb 78f 78f
12:50pm 2.5ft 9s 4s 13 16 mph 1019mb 78f 78f
10:50am 2.5ft 9s 4s 16 18 mph 1019.2mb 78f 78f
9:50am 2.5ft 9s 5s 13 16 mph 1018.7mb 78f 78f
8:50am 2.5ft 10s 5s 13 16 mph 1018.8mb 78f 78f
7:50am 2.5ft 10s 5s 13 16 mph 1018.9mb 78f 78f
6:50am 2.5ft 10s 5s 16 18 mph 1018.8mb 78f 78f
5:50am 2.5ft 9s 5s 13 16 mph 1018.6mb 78f 78f
4:50am 2.5ft 10s 4s 18 20 mph 1018.6mb 78f 78f
3:50am 2.5ft 10s 4s 16 18 mph 1018.7mb 78f 78f
2:50am 2.5ft 10s 5s 16 18 mph 1018.7mb 78f 78f
1:50am 2.5ft 10s 4s 16 18 mph 1019.1mb 78f 78f
12:50am 3ft 11s 4s 16 18 mph 1019.4mb 78f 78f
Sun 08/30 11:50pm 3ft 10s 4s 16 18 mph 1019.4mb 78f 78f
10:50pm 2.5ft 10s 4s 18 20 mph 1019.3mb 78f 78f
9:50pm 3ft 10s 4s 18 20 mph 1019.2mb 78f 78f
8:50pm 3ft 11s 4s 18 20 mph 1019.2mb 78f 78f
7:50pm 3ft 10s 5s 18 20 mph 1018.9mb 78f 78f
6:50pm 2.5ft 10s 5s 18 20 mph 1018.6mb 79f 79f
5:50pm 2.5ft 10s 6s 16 18 mph 1018.6mb 79f 79f
4:50pm 2.5ft 10s 7s 13 16 mph 1018.8mb 79f 79f
3:50pm 2.5ft 10s 7s 11 13 mph 1019.3mb 79f 78f
2:50pm 2.5ft 10s 7s 9 11 mph 1020mb 79f 78f
1:50pm 2.5ft 10s 8s 9 11 mph 1020.5mb 79f 77f
12:50pm 2.5ft 11s 7s 7 9 mph 1020.8mb 78f 76f
11:50am 3ft 10s 8s 4 7 mph 1021.4mb 78f 76f
10:50am 2.5ft 11s 8s 7
mph
1021.5mb 78f 76f
9:50am 2.5ft 11s 8s 4 7 mph 1021.2mb 78f 76f
8:50am 2.5ft 11s 7s 4
mph
1020.7mb 78f 76f
7:50am 2.5ft 11s 8s 4
mph
1020.5mb 78f 75f
6:50am 3ft 11s 7s 4 7 mph 1020.2mb 78f 76f
5:50am 2.5ft 11s 7s 4 7 mph 1019.7mb 78f 76f
4:50am 2.5ft 10s 7s 4 7 mph 1019.5mb 78f 76f
3:50am 2.5ft 11s 7s 7
mph
1019.8mb 78f 76f
2:50am 3ft 10s 8s 9 11 mph 1019.7mb 78f 76f
1:50am 3ft 11s 8s 9 11 mph 1020.2mb 78f 76f
12:50am 2.5ft 11s 7s 7 9 mph 1020.9mb 78f 76f